1998 Severe Tropical Cyclone ALISON (1998310S10096)


IBTrACS version v04r00. Visit IBTrACS website for data access.
Please direct all questions to the IBTrACS Q and A forum

Storm track - Intensity - Wind Radii - Intensity Data - Source Data - All data

Summary Information

Satellite image near maximum intensity
Storm ID 1998310S10096
Start Nov 6 06Z
Max Intensity 85 kt (Nov 9 07Z), 955 mb (Nov 9 07Z)
End Nov 13 10Z
ATCF IDs ,SH041999
Track status Best track data.

Storm track plot

Map of storm track

Intensity plots

Map of storm track

Radial wind information

Map of storm track

Position and Intensity Table

BASIN ISO_TIME_________ NATURE LAT LON WMO WIND WMO PRES USA WIND BOM WIND BOM PRES NEUMANN WIND
degrees north degrees east kts mb kts kts mb kts
SI 1998-11-06 06:00:00 TS -9.90 96.30 15 15
SI 09:00:00 TS -9.94 96.62 17 17
SI 12:00:00 TS -10.00 96.90 20 20
SI 15:00:00 TS -10.11 97.11 20 20
SI 18:00:00 TS -10.20 97.30 20 20
SI 21:00:00 TS -10.21 97.53 20 20
SI 1998-11-07 00:00:00 TS -10.20 97.80 20 20
SI 01:00:00 TS -10.20 97.94 25 1002 20 25 1002 20
SI 03:00:00 TS -10.20 98.17 22 25 1002 22
SI 04:00:00 TS -10.22 98.30 25 1002 23 25 1002 23
SI 06:00:00 TS -10.23 98.51 25 25 1000 25
SI 07:00:00 TS -10.25 98.62 25 1000 25 25 1000 25
SI 09:00:00 TS -10.31 98.83 25 25 1000 25
SI 10:00:00 TS -10.34 98.93 25 1000 25 25 1000 25
SI 12:00:00 TS -10.40 99.09 25 28 998 25
SI 13:00:00 TS -10.43 99.17 30 998 25 30 998 25
SI 15:00:00 TS -10.51 99.31 25 30 998 25
SI 16:00:00 TS -10.56 99.36 30 998 25 30 998 25
SI 18:00:00 TS -10.63 99.42 25 30 996 25
SI 19:00:00 TS -10.67 99.43 30 996 25 30 996 25
SI 21:00:00 TS -10.78 99.40 25 30 996 25
SI 22:00:00 TS -10.84 99.36 30 996 25 30 996 25
SI 1998-11-08 00:00:00 TS -10.99 99.29 25 33 994 25
SI 01:00:00 TS -11.07 99.27 35 994 25 35 994 25
SI 03:00:00 TS -11.23 99.18 25 38 992 25
SI 04:00:00 TS -11.32 99.11 40 992 25 40 992 25
SI 06:00:00 TS -11.55 98.96 25 40 990 25
SI 07:00:00 TS -11.68 98.86 40 990 26 40 990 26
SI 09:00:00 TS -11.93 98.59 30 46 986 30
SI 10:00:00 TS -12.05 98.45 50 985 31 50 985 31
SI 12:00:00 TS -12.30 98.18 35 53 981 35
SI 13:00:00 TS -12.41 98.06 55 980 38 55 980 38
SI 15:00:00 TS -12.60 97.80 45 58 976 45
SI 16:00:00 TS -12.68 97.69 60 975 48 60 975 48
SI 18:00:00 TS -12.84 97.50 55 63 971 55
SI 19:00:00 TS -12.92 97.41 65 970 55 65 970 55
SI 21:00:00 TS -13.05 97.22 55 71 966 55
SI 22:00:00 TS -13.12 97.12 75 965 55 75 965 55
SI 1998-11-09 00:00:00 TS -13.25 96.89 55 78 961 55
SI 01:00:00 TS -13.31 96.76 80 960 55 80 960 55
SI 03:00:00 TS -13.42 96.50 55 80 960 55
SI 04:00:00 TS -13.47 96.36 80 960 55 80 960 55
SI 06:00:00 TS -13.61 96.11 55 83 956 55
SI 07:00:00 TS -13.69 95.99 85 955 57 85 955 57
SI 09:00:00 TS -13.86 95.75 62 85 955 62
SI 10:00:00 TS -13.96 95.63 85 955 65 85 955 65
SI 12:00:00 TS -14.13 95.38 70 85 955 70
SI 13:00:00 TS -14.21 95.24 85 955 70 85 955 70
SI 15:00:00 TS -14.37 94.96 70 81 958 70
SI 16:00:00 TS -14.45 94.83 80 960 70 80 960 70
SI 18:00:00 TS -14.58 94.59 70 80 960 70
SI 19:00:00 TS -14.64 94.48 80 960 70 80 960 70
SI 21:00:00 TS -14.77 94.26 70 80 960 70
SI 22:00:00 TS -14.83 94.15 80 960 70 80 960 70
SI 1998-11-10 00:00:00 TS -15.00 93.95 70 80 960 70
SI 01:00:00 TS -15.09 93.85 80 960 70 80 960 70
SI 03:00:00 TS -15.26 93.64 70 73 963 70
SI 04:00:00 TS -15.35 93.55 70 965 70 70 965 70
SI 06:00:00 TS -15.59 93.38 70 70 965 70
SI 07:00:00 TS -15.71 93.30 70 965 70 70 965 70
SI 09:00:00 TS -15.94 93.16 70 66 968 70
SI 10:00:00 TS -16.05 93.09 65 970 70 65 970 70
SI 12:00:00 TS -16.27 92.96 70 65 970 70
SI 13:00:00 TS -16.36 92.89 65 970 70 65 970 70
SI 15:00:00 TS -16.53 92.75 70 61 973 70
SI 16:00:00 TS -16.60 92.69 60 975 70 60 975 70
SI 18:00:00 TS -16.74 92.59 70 60 975 70
SI 19:00:00 TS -16.81 92.54 60 975 69 60 975 69
SI 21:00:00 TS -16.96 92.46 67 60 975 67
SI 22:00:00 TS -17.04 92.41 60 975 66 60 975 66
SI 1998-11-11 00:00:00 TS -17.20 92.32 65 56 978 65
SI 01:00:00 TS -17.28 92.27 55 980 65 55 980 65
SI 03:00:00 TS -17.46 92.15 65 55 980 65
SI 04:00:00 TS -17.55 92.10 55 980 65 55 980 65
SI 06:00:00 TS -17.74 92.01 65 55 980 65
SI 07:00:00 TS -17.83 91.97 55 980 65 55 980 65
SI 09:00:00 TS -18.00 91.90 65 51 983 65
SI 10:00:00 TS -18.09 91.86 50 985 65 50 985 65
SI 12:00:00 TS -18.28 91.79 65 50 985 65
SI 13:00:00 TS -18.38 91.76 50 985 64 50 985 64
SI 15:00:00 TS -18.60 91.75 62 50 985 62
SI 16:00:00 TS -18.71 91.74 50 985 61 50 985 61
SI 18:00:00 TS -18.88 91.71 60 50 985 60
SI 19:00:00 TS -18.94 91.68 50 985 60 50 985 60
SI 21:00:00 TS -19.00 91.60 62 43 988 62
SI 22:00:00 TS -19.01 91.55 40 990 63 40 990 63
SI 1998-11-12 00:00:00 TS -19.02 91.44 65 40 990 65
SI 01:00:00 TS -19.03 91.39 40 990 63 40 990 63
SI 03:00:00 TS -19.05 91.28 60 36 993 60
SI 04:00:00 TS -19.07 91.22 35 995 58 35 995 58
SI 06:00:00 TS -19.06 91.12 55 35 995 55
SI 07:00:00 NR -19.04 91.07 35 995 55 35 995
SI 09:00:00 NR -18.97 90.95 55 31 996
SI 10:00:00 NR -18.92 90.90 30 998 55 30 998
SI 12:00:00 NR -18.83 90.81 55 26 999
SI 13:00:00 NR -18.77 90.78 25 1000 54 25 1000
SI 15:00:00 NR -18.64 90.72 52 25 1000
SI 18:00:00 NR -18.38 90.67 50 25 1000
SI 19:00:00 NR -18.20 90.70 25 1000 25 1000
SI 21:00:00 NR -17.85 90.70 23 1001
SI 1998-11-13 00:00:00 NR -17.27 90.66 20 1004
SI 01:00:00 NR -17.10 90.60 20 1005 20 1005
SI 03:00:00 NR -16.91 90.47 20 1005
SI 06:00:00 NR -16.64 90.04 20 1005
SI 07:00:00 NR -16.50 89.80 20 1005
SI 09:00:00 NR -16.12 89.16 20 1005
SI 10:00:00 NR -15.90 88.80 20 1005

Source Information

Agency Information
USA bsh041999.txt
TOKYO
CMA
HKO
NEWDELHI
REUNION
BOM IDCKMSTM0S.csv:Line=19849:ALISON
NADI
WELLINGTON
DS824
TD9636
TD9635
NEUMANN tracks.sh:Storm=1143:ALISON:BSH041999:JTWC
MLC

All available IBTrACS Data

SEASON BASIN SUBBASIN ISO_TIME_________ NATURE LAT LON WMO WIND WMO PRES WMO AGENCY DIST2LAND LANDFALL IFLAG USA AGENCY USA ATCF_ID USA LAT USA LON USA WIND USA SSHS BOM LAT BOM LON BOM TYPE BOM WIND BOM PRES BOM CI BOM ROCI BOM POS_METHOD BOM PRES_METHOD NEUMANN LAT NEUMANN LON NEUMANN CLASS NEUMANN WIND STORM SPEED STORM DIR
Year degrees north degrees east kts mb km km degrees north degrees east kts 1 degrees north degrees east kts mb 1 nmile degrees north degrees east kts kts degrees
1999 SI WA 1998-11-06 06:00:00 TS -9.90 96.30 935 912 O___________O_ jtwc_sh SH041999 -9.90 96.30 15 -1 -9.90 96.30 TC 15 6 96
1999 SI WA 09:00:00 TS -9.94 96.62 912 898 P___________P_ SH041999 -9.94 96.62 17 -1 -9.94 96.62 TC 17 6 100
1999 SI WA 12:00:00 TS -10.00 96.90 898 891 O___________O_ jtwc_sh SH041999 -10.00 96.90 20 -1 -10.00 96.90 TC 20 5 110
1999 SI WA 15:00:00 TS -10.11 97.11 892 885 P___________P_ SH041999 -10.11 97.11 20 -1 -10.11 97.11 TC 20 4 117
1999 SI WA 18:00:00 TS -10.20 97.30 887 873 O___________O_ jtwc_sh SH041999 -10.20 97.30 20 -1 -10.20 97.30 TC 20 4 105
1999 SI WA 21:00:00 TS -10.21 97.53 873 851 P___________P_ SH041999 -10.21 97.53 20 -1 -10.21 97.53 TC 20 5 90
1999 SI WA 1998-11-07 00:00:00 TS -10.20 97.80 851 843 O___________O_ jtwc_sh SH041999 -10.20 97.80 20 -1 -10.20 97.80 TC 20 6 87
1999 SI WA 01:00:00 TS -10.20 97.94 25 1002 bom 843 822 P_____O_____P_ SH041999 -10.19 97.91 20 -1 -10.20 98.20 20 25 1002 1.50 269 3 5 -10.19 97.91 TC 20 7 91
1999 SI WA 03:00:00 TS -10.20 98.17 822 815 P_____P_____P_ SH041999 -10.19 98.14 22 -1 -10.28 98.33 20 25 1002 269 -10.19 98.14 TC 22 7 93
1999 SI WA 04:00:00 TS -10.22 98.30 25 1002 bom 815 802 P_____O_____P_ SH041999 -10.18 98.26 23 -1 -10.30 98.40 20 25 1002 1.50 269 3 5 -10.18 98.26 TC 23 7 95
1999 SI WA 06:00:00 TS -10.23 98.51 802 795 O_____P_____O_ jtwc_sh SH041999 -10.20 98.50 25 -1 -10.30 98.53 20 25 1000 161 -10.20 98.50 TC 25 6 95
1999 SI WA 07:00:00 TS -10.25 98.62 25 1000 bom 795 791 P_____O_____P_ SH041999 -10.22 98.62 25 -1 -10.30 98.60 20 25 1000 2.00 107 3 5 -10.22 98.62 TC 25 6 104
1999 SI WA 09:00:00 TS -10.31 98.83 791 784 P_____P_____P_ SH041999 -10.28 98.87 25 -1 -10.37 98.74 20 25 1000 107 -10.28 98.87 TC 25 6 108
1999 SI WA 10:00:00 TS -10.34 98.93 25 1000 bom 784 779 P_____O_____P_ SH041999 -10.31 98.99 25 -1 -10.40 98.80 20 25 1000 2.00 107 3 5 -10.31 98.99 TC 25 5 110
1999 SI WA 12:00:00 TS -10.40 99.09 779 773 O_____P_____O_ jtwc_sh SH041999 -10.40 99.20 25 -1 -10.40 98.87 20 28 998 178 -10.40 99.20 TC 25 5 110
1999 SI WA 13:00:00 TS -10.43 99.17 30 998 bom 773 770 P_____O_____P_ SH041999 -10.44 99.30 25 -1 -10.40 98.90 20 30 998 2.50 215 3 5 -10.44 99.30 TC 25 5 118
1999 SI WA 15:00:00 TS -10.51 99.31 770 766 P_____P_____P_ SH041999 -10.53 99.47 25 -1 -10.47 98.97 20 30 998 215 -10.53 99.47 TC 25 5 125
1999 SI WA 16:00:00 TS -10.56 99.36 30 998 bom 766 766 P_____O_____P_ SH041999 -10.59 99.54 25 -1 -10.50 99.00 20 30 998 2.50 215 3 5 -10.59 99.54 TC 25 3 137
1999 SI WA 18:00:00 TS -10.63 99.42 766 766 O_____P_____O_ jtwc_sh SH041999 -10.70 99.60 25 -1 -10.50 99.07 20 30 996 215 -10.70 99.60 TC 25 3 148
1999 SI WA 19:00:00 TS -10.67 99.43 30 996 bom 773 773 P_____O_____P_ SH041999 -10.76 99.59 25 -1 -10.50 99.10 20 30 996 2.50 215 3 5 -10.76 99.59 TC 25 3 0
1999 SI WA 21:00:00 TS -10.78 99.40 779 779 P_____P_____P_ SH041999 -10.89 99.51 25 -1 -10.55 99.17 20 30 996 215 -10.89 99.51 TC 25 4 203
1999 SI WA 22:00:00 TS -10.84 99.36 30 996 bom 779 785 P_____O_____P_ SH041999 -10.96 99.45 25 -1 -10.60 99.20 20 30 996 2.50 215 3 5 -10.96 99.45 TC 25 5 204
1999 SI WA 1998-11-08 00:00:00 TS -10.99 99.29 801 801 O_____P_____O_ jtwc_sh SH041999 -11.10 99.30 25 -1 -10.78 99.28 20 33 994 143 -11.10 99.30 TC 25 5 203
1999 SI WA 01:00:00 TS -11.07 99.27 35 994 bom 807 807 P_____O_____P_ SH041999 -11.16 99.25 25 -1 -10.90 99.30 30 35 994 3.00 107 3 5 -11.16 99.25 TC 25 5 207
1999 SI WA 03:00:00 TS -11.23 99.18 823 823 P_____P_____P_ SH041999 -11.27 99.14 25 -1 -11.15 99.25 30 38 992 107 -11.27 99.14 TC 25 6 211
1999 SI WA 04:00:00 TS -11.32 99.11 40 992 bom 838 838 P_____O_____P_ SH041999 -11.33 99.07 25 -1 -11.30 99.20 30 40 992 3.00 107 3 5 -11.33 99.07 TC 25 8 213
1999 SI WA 06:00:00 TS -11.55 98.96 860 860 O_____P_____O_ jtwc_sh SH041999 -11.50 98.90 25 -1 -11.64 99.09 30 40 990 107 -11.50 98.90 TC 25 9 216
1999 SI WA 07:00:00 TS -11.68 98.86 40 990 bom 883 891 P_____O_____P_ SH041999 -11.62 98.78 26 -1 -11.80 99.00 30 40 990 3.00 107 3 5 -11.62 98.78 TC 26 11 224
1999 SI WA 09:00:00 TS -11.93 98.59 922 922 P_____P_____P_ SH041999 -11.89 98.52 30 -1 -12.01 98.74 30 46 986 107 -11.89 98.52 TC 30 11 227
1999 SI WA 10:00:00 TS -12.05 98.45 50 985 bom 953 953 P_____O_____P_ SH041999 -12.03 98.37 31 -1 -12.10 98.60 30 50 985 3.50 107 3 5 -12.03 98.37 TC 31 11 227
1999 SI WA 12:00:00 TS -12.30 98.18 984 984 O_____P_____O_ jtwc_sh SH041999 -12.30 98.10 35 0 -12.31 98.34 30 53 981 107 -12.30 98.10 TC 35 11 227
1999 SI WA 13:00:00 TS -12.41 98.06 55 980 bom 999 1008 P_____O_____P_ SH041999 -12.42 97.99 38 0 -12.40 98.20 30 55 980 4.00 107 3 5 -12.42 97.99 TC 38 9 231
1999 SI WA 15:00:00 TS -12.60 97.80 1039 1039 P_____P_____P_ SH041999 -12.63 97.78 45 0 -12.54 97.86 30 58 976 107 -12.63 97.78 TC 45 9 233
1999 SI WA 16:00:00 TS -12.68 97.69 60 975 bom 1054 1054 P_____O_____P_ SH041999 -12.73 97.68 48 0 -12.60 97.70 30 60 975 4.00 107 3 5 -12.73 97.68 TC 48 8 230
1999 SI WA 18:00:00 TS -12.84 97.50 1078 1078 O_____P_____O_ jtwc_sh SH041999 -12.90 97.50 55 0 -12.73 97.50 30 63 971 142 -12.90 97.50 TC 55 7 229
1999 SI WA 19:00:00 TS -12.92 97.41 65 970 bom 1094 1094 P_____O_____P_ SH041999 -12.98 97.42 55 0 -12.80 97.40 40 65 970 4.50 161 3 5 -12.98 97.42 TC 55 7 232
1999 SI WA 21:00:00 TS -13.05 97.22 1125 1125 P_____P_____P_ SH041999 -13.11 97.26 55 0 -12.93 97.15 40 71 966 161 -13.11 97.26 TC 55 7 235
1999 SI WA 22:00:00 TS -13.12 97.12 75 965 bom 1133 1133 P_____O_____P_ SH041999 -13.18 97.18 55 0 -13.00 97.00 40 75 965 4.50 161 3 5 -13.18 97.18 TC 55 8 239
1999 SI WA 1998-11-09 00:00:00 TS -13.25 96.89 1157 1157 O_____P_____O_ jtwc_sh SH041999 -13.30 97.00 55 0 -13.14 96.67 40 78 961 125 -13.30 97.00 TC 55 8 241
1999 SI WA 01:00:00 TS -13.31 96.76 80 960 bom 1173 1181 P_____O_____P_ SH041999 -13.36 96.89 55 0 -13.20 96.50 40 80 960 5.00 107 3 5 -13.36 96.89 TC 55 8 246
1999 SI WA 03:00:00 TS -13.42 96.50 1205 1205 P_____P_____P_ SH041999 -13.49 96.66 55 0 -13.26 96.16 40 80 960 107 -13.49 96.66 TC 55 8 247
1999 SI WA 04:00:00 TS -13.47 96.36 80 960 bom 1221 1229 P_____O_____P_ SH041999 -13.56 96.54 55 0 -13.30 96.00 40 80 960 5.00 107 3 5 -13.56 96.54 TC 55 8 243
1999 SI WA 06:00:00 TS -13.61 96.11 1253 1253 O_____P_____O_ jtwc_sh SH041999 -13.70 96.30 55 0 -13.42 95.73 40 83 956 178 -13.70 96.30 TC 55 8 239
1999 SI WA 07:00:00 TS -13.69 95.99 85 955 bom 1269 1269 P_____O_____P_ SH041999 -13.78 96.19 57 0 -13.50 95.60 40 85 955 5.00 215 3 5 -13.78 96.19 TC 57 9 233
1999 SI WA 09:00:00 TS -13.86 95.75 1299 1299 P_____P_____P_ SH041999 -13.95 95.96 62 0 -13.69 95.33 40 85 955 215 -13.95 95.96 TC 62 9 232
1999 SI WA 10:00:00 TS -13.96 95.63 85 955 bom 1323 1323 P_____O_____P_ SH041999 -14.04 95.85 65 1 -13.80 95.20 40 85 955 5.00 215 3 5 -14.04 95.85 TC 65 9 234
1999 SI WA 12:00:00 TS -14.13 95.38 1347 1347 O_____P_____O_ jtwc_sh SH041999 -14.20 95.60 70 1 -14.00 94.93 40 85 955 215 -14.20 95.60 TC 70 9 236
1999 SI WA 13:00:00 TS -14.21 95.24 85 955 bom 1371 1371 P_____O_____P_ SH041999 -14.27 95.46 70 1 -14.10 94.80 40 85 955 5.00 215 3 5 -14.27 95.46 TC 70 9 239
1999 SI WA 15:00:00 TS -14.37 94.96 1402 1402 P_____P_____P_ SH041999 -14.41 95.15 70 1 -14.31 94.59 40 81 958 215 -14.41 95.15 TC 70 9 239
1999 SI WA 16:00:00 TS -14.45 94.83 80 960 bom 1419 1426 P_____O_____P_ SH041999 -14.47 95.00 70 1 -14.40 94.50 40 80 960 5.00 215 3 5 -14.47 95.00 TC 70 8 240
1999 SI WA 18:00:00 TS -14.58 94.59 1450 1450 O_____P_____O_ jtwc_sh SH041999 -14.60 94.70 70 1 -14.54 94.37 40 80 960 179 -14.60 94.70 TC 70 8 240
1999 SI WA 19:00:00 TS -14.64 94.48 80 960 bom 1458 1465 P_____O_____P_ SH041999 -14.66 94.57 70 1 -14.60 94.30 40 80 960 5.00 161 3 5 -14.66 94.57 TC 70 7 240
1999 SI WA 21:00:00 TS -14.77 94.26 1489 1489 P_____P_____P_ SH041999 -14.78 94.33 70 1 -14.73 94.10 40 80 960 161 -14.78 94.33 TC 70 8 239
1999 SI WA 22:00:00 TS -14.83 94.15 80 960 bom 1503 1503 P_____O_____P_ SH041999 -14.85 94.22 70 1 -14.80 94.00 40 80 960 5.00 161 3 5 -14.85 94.22 TC 70 8 231
1999 SI WA 1998-11-10 00:00:00 TS -15.00 93.95 1527 1527 O_____P_____O_ jtwc_sh SH041999 -15.00 94.00 70 1 -15.00 93.86 40 80 960 125 -15.00 94.00 TC 70 8 228
1999 SI WA 01:00:00 TS -15.09 93.85 80 960 bom 1542 1549 P_____O_____P_ SH041999 -15.09 93.88 70 1 -15.10 93.80 40 80 960 5.00 107 3 5 -15.09 93.88 TC 70 8 229
1999 SI WA 03:00:00 TS -15.26 93.64 1580 1580 P_____P_____P_ SH041999 -15.28 93.64 70 1 -15.22 93.66 40 73 963 107 -15.28 93.64 TC 70 8 228
1999 SI WA 04:00:00 TS -15.35 93.55 70 965 bom 1596 1596 P_____O_____P_ SH041999 -15.38 93.52 70 1 -15.30 93.60 40 70 965 4.50 107 3 5 -15.38 93.52 TC 70 8 218
1999 SI WA 06:00:00 TS -15.59 93.38 1620 1620 O_____P_____O_ jtwc_sh SH041999 -15.60 93.30 70 1 -15.56 93.53 40 70 965 107 -15.60 93.30 TC 70 9 214
1999 SI WA 07:00:00 TS -15.71 93.30 70 965 bom 1635 1635 P_____O_____P_ SH041999 -15.72 93.20 70 1 -15.70 93.50 40 70 965 4.50 107 3 5 -15.72 93.20 TC 70 8 211
1999 SI WA 09:00:00 TS -15.94 93.16 1657 1657 P_____P_____P_ SH041999 -15.96 93.02 70 1 -15.91 93.44 40 66 968 107 -15.96 93.02 TC 70 8 210
1999 SI WA 10:00:00 TS -16.05 93.09 65 970 bom 1679 1679 P_____O_____P_ SH041999 -16.08 92.94 70 1 -16.00 93.40 40 65 970 4.50 107 3 5 -16.08 92.94 TC 70 8 210
1999 SI WA 12:00:00 TS -16.27 92.96 1701 1701 O_____P_____O_ jtwc_sh SH041999 -16.30 92.80 70 1 -16.21 93.28 40 65 970 142 -16.30 92.80 TC 70 7 212
1999 SI WA 13:00:00 TS -16.36 92.89 65 970 bom 1717 1717 P_____O_____P_ SH041999 -16.40 92.74 70 1 -16.30 93.20 40 65 970 4.50 161 3 5 -16.40 92.74 TC 70 7 218
1999 SI WA 15:00:00 TS -16.53 92.75 1732 1732 P_____P_____P_ SH041999 -16.57 92.63 70 1 -16.44 93.00 40 61 973 161 -16.57 92.63 TC 70 6 220
1999 SI WA 16:00:00 TS -16.60 92.69 60 975 bom 1747 1747 P_____O_____P_ SH041999 -16.65 92.58 70 1 -16.50 92.90 30 60 975 4.00 161 3 5 -16.65 92.58 TC 70 5 216
1999 SI WA 18:00:00 TS -16.74 92.59 1762 1762 O_____P_____O_ jtwc_sh SH041999 -16.80 92.50 70 1 -16.63 92.76 30 60 975 125 -16.80 92.50 TC 70 5 213
1999 SI WA 19:00:00 TS -16.81 92.54 60 975 bom 1778 1778 P_____O_____P_ SH041999 -16.87 92.46 69 1 -16.70 92.70 30 60 975 4.00 107 3 5 -16.87 92.46 TC 69 5 210
1999 SI WA 21:00:00 TS -16.96 92.46 1791 1791 P_____P_____P_ SH041999 -17.00 92.40 67 1 -16.89 92.57 30 60 975 107 -17.00 92.40 TC 67 5 209
1999 SI WA 22:00:00 TS -17.04 92.41 60 975 bom 1800 1807 P_____O_____P_ SH041999 -17.06 92.37 66 1 -17.00 92.50 30 60 975 4.00 107 3 5 -17.06 92.37 TC 66 5 208
1999 SI WA 1998-11-11 00:00:00 TS -17.20 92.32 1822 1822 O_____P_____O_ jtwc_sh SH041999 -17.20 92.30 65 1 -17.20 92.37 30 56 978 107 -17.20 92.30 TC 65 6 210
1999 SI WA 01:00:00 TS -17.28 92.27 55 980 bom 1829 1829 P_____O_____P_ SH041999 -17.28 92.25 65 1 -17.30 92.30 30 55 980 4.00 107 3 5 -17.28 92.25 TC 65 6 212
1999 SI WA 03:00:00 TS -17.46 92.15 1851 1851 P_____P_____P_ SH041999 -17.44 92.15 65 1 -17.50 92.16 30 55 980 107 -17.44 92.15 TC 65 6 212
1999 SI WA 04:00:00 TS -17.55 92.10 55 980 bom 1859 1866 P_____O_____P_ SH041999 -17.52 92.10 65 1 -17.60 92.10 30 55 980 4.00 107 3 5 -17.52 92.10 TC 65 6 206
1999 SI WA 06:00:00 TS -17.74 92.01 1882 1882 O_____P_____O_ jtwc_sh SH041999 -17.70 92.00 65 1 -17.81 92.03 30 55 980 107 -17.70 92.00 TC 65 6 202
1999 SI WA 07:00:00 TS -17.83 91.97 55 980 bom 1889 1889 P_____O_____P_ SH041999 -17.79 91.96 65 1 -17.90 92.00 30 55 980 4.00 107 3 5 -17.79 91.96 TC 65 6 202
1999 SI WA 09:00:00 TS -18.00 91.90 1911 1911 P_____P_____P_ SH041999 -17.98 91.88 65 1 -18.04 91.94 30 51 983 107 -17.98 91.88 TC 65 6 201
1999 SI WA 10:00:00 TS -18.09 91.86 50 985 bom 1918 1918 P_____O_____P_ SH041999 -18.09 91.85 65 1 -18.10 91.90 30 50 985 3.50 107 3 5 -18.09 91.85 TC 65 6 200
1999 SI WA 12:00:00 TS -18.28 91.79 1940 1940 O_____P_____O_ jtwc_sh SH041999 -18.30 91.80 65 1 -18.23 91.76 30 50 985 107 -18.30 91.80 TC 65 6 198
1999 SI WA 13:00:00 TS -18.38 91.76 50 985 bom 1948 1948 P_____O_____P_ SH041999 -18.43 91.80 64 1 -18.30 91.70 30 50 985 3.50 107 3 5 -18.43 91.80 TC 64 7 185
1999 SI WA 15:00:00 TS -18.60 91.75 1970 1970 P_____P_____P_ SH041999 -18.69 91.81 62 0 -18.43 91.63 30 50 985 107 -18.69 91.81 TC 62 6 182
1999 SI WA 16:00:00 TS -18.71 91.74 50 985 bom 1977 1977 P_____O_____P_ SH041999 -18.81 91.81 61 0 -18.50 91.60 30 50 985 3.50 107 3 5 -18.81 91.81 TC 61 6 187
1999 SI WA 18:00:00 TS -18.88 91.71 1992 1992 O_____P_____O_ jtwc_sh SH041999 -19.00 91.80 60 0 -18.64 91.53 30 50 985 107 -19.00 91.80 TC 60 5 193
1999 SI WA 19:00:00 TS -18.94 91.68 50 985 bom 1992 1992 P_____O_____P_ SH041999 -19.06 91.77 60 0 -18.70 91.50 30 50 985 3.50 107 3 5 -19.06 91.77 TC 60 3 222
1999 SI WA 21:00:00 TS -19.00 91.60 2007 2007 P_____P_____P_ SH041999 -19.11 91.68 62 0 -18.77 91.43 30 43 988 107 -19.11 91.68 TC 62 3 239
1999 SI WA 22:00:00 TS -19.01 91.55 40 990 bom 2015 2015 P_____O_____P_ SH041999 -19.12 91.62 63 0 -18.80 91.40 30 40 990 3.00 107 3 5 -19.12 91.62 TC 63 3 261
1999 SI WA 1998-11-12 00:00:00 TS -19.02 91.44 2023 2023 O_____P_____O_ jtwc_sh SH041999 -19.10 91.50 65 1 -18.86 91.33 30 40 990 107 -19.10 91.50 TC 65 3 263
1999 SI WA 01:00:00 TS -19.03 91.39 40 990 bom 2023 2023 P_____O_____P_ SH041999 -19.09 91.44 63 0 -18.90 91.30 30 40 990 3.00 107 3 5 -19.09 91.44 TC 63 3 258
1999 SI WA 03:00:00 TS -19.05 91.28 2038 2038 P_____P_____P_ SH041999 -19.07 91.30 60 0 -19.04 91.23 30 36 993 107 -19.06 91.30 TC 60 3 257
1999 SI WA 04:00:00 TS -19.07 91.22 35 995 bom 2046 2046 P_____O_____P_ SH041999 -19.04 91.23 58 0 -19.10 91.20 30 35 995 3.00 107 3 5 -19.04 91.24 TC 58 3 269
1999 SI WA 06:00:00 TS -19.06 91.12 2054 2047 O_____P_____O_ jtwc_sh SH041999 -19.00 91.10 55 0 -19.13 91.14 30 35 995 107 -19.00 91.10 TC 55 3 279
1999 SI WA 07:00:00 NR -19.04 91.07 35 995 bom 2047 2047 P_____O_______ SH041999 -18.99 91.04 55 0 -19.10 91.10 30 35 995 3.00 107 3 5 TC 4 298
1999 SI WA 09:00:00 NR -18.97 90.95 2055 2055 P_____P_______ SH041999 -18.96 90.94 55 0 -18.98 90.96 30 31 996 107 TC 4 306
1999 SI WA 10:00:00 NR -18.92 90.90 30 998 bom 2056 2056 P_____O_______ SH041999 -18.95 90.89 55 0 -18.90 90.90 20 30 998 2.50 107 3 5 TC 4 316
1999 SI WA 12:00:00 NR -18.83 90.81 2057 2057 O_____P_______ jtwc_sh SH041999 -18.90 90.80 55 0 -18.77 90.82 20 26 999 107 4 324
1999 SI WA 13:00:00 NR -18.77 90.78 25 1000 bom 2057 2050 P_____O_______ SH041999 -18.86 90.75 54 0 -18.70 90.80 20 25 1000 2.00 107 3 5 4 335
1999 SI WA 15:00:00 NR -18.64 90.72 2052 2038 P_____P_______ SH041999 -18.77 90.65 52 0 -18.57 90.76 20 25 1000 107 5 345
1999 SI WA 18:00:00 NR -18.38 90.67 2038 2024 O_____P_______ jtwc_sh SH041999 -18.60 90.50 50 0 -18.32 90.71 20 25 1000 107 7 357
1999 SI WA 19:00:00 NR -18.20 90.70 25 1000 bom 2024 2003 ______O_______ SH041999 -1 -18.20 90.70 20 25 1000 2.00 107 3 5 11 4
1999 SI WA 21:00:00 NR -17.85 90.70 2003 1954 ______P_______ SH041999 -1 -17.85 90.70 20 23 1001 107 11 358
1999 SI WA 1998-11-13 00:00:00 NR -17.27 90.66 1954 1944 ______P_______ -1 -17.27 90.66 20 20 1004 107 11 352
1999 SI WA 01:00:00 NR -17.10 90.60 20 1005 bom 1944 1934 ______O_______ -1 -17.10 90.60 20 20 1005 1.50 107 3 5 8 335
1999 SI WA 03:00:00 NR -16.91 90.47 1934 1930 ______P_______ -1 -16.91 90.47 20 20 1005 107 9 311
1999 SI WA 06:00:00 NR -16.64 90.04 1932 1928 ______P_______ -1 -16.64 90.04 20 20 1005 107 11 302
1999 SI MM 07:00:00 NR -16.50 89.80 1934 1930 ______O_______ -1 -16.50 89.80 20 20 1005 1.50 107 3 5 20 301
1999 SI MM 09:00:00 NR -16.12 89.16 1931 1931 ______P_______ -1 -16.12 89.16 20 20 1005 107 23 302
1999 SI MM 10:00:00 NR -15.90 88.80 1938 ______O_______ -1 -15.90 88.80 20 20 1005 1.50 107 3 5 25 302